Time;durP1;ratioP1;P1;durP2;ratioP2;P2;SDS_P1;SDS_P2;PMS_P1;PMS_P2;Temp;Humidity;BMP_temperature;BMP_pressure;BME280_temperature;BME280_humidity;BME280_pressure;Samples;Min_cycle;Max_cycle;Signal;HPM_P1;HPM_P2
2022/08/20 00:00:28;;;;;;;9.63;6.47;;;22.70;94.50;;;;;;5073903;28;20444;-71
2022/08/20 00:02:57;;;;;;;8.83;6.20;;;22.70;95.00;;;;;;5073730;28;20480;-71
2022/08/20 00:05:27;;;;;;;8.00;6.57;;;22.70;95.20;;;;;;5073506;28;20456;-71
2022/08/20 00:07:55;;;;;;;10.57;6.67;;;22.60;95.40;;;;;;5073838;28;20436;-71
2022/08/20 00:10:23;;;;;;;9.53;7.20;;;22.70;95.50;;;;;;5073636;28;20534;-71
2022/08/20 00:12:51;;;;;;;6.37;5.77;;;22.70;95.40;;;;;;5073609;28;20468;-71
2022/08/20 00:15:20;;;;;;;8.03;6.30;;;22.70;95.10;;;;;;5073377;28;20437;-71
2022/08/20 00:17:49;;;;;;;6.20;5.60;;;22.70;95.00;;;;;;5073644;28;20445;-71
2022/08/20 00:20:16;;;;;;;7.07;6.23;;;22.60;95.00;;;;;;5073678;28;20447;-71
2022/08/20 00:22:43;;;;;;;6.93;6.20;;;22.60;95.30;;;;;;5073550;28;20469;-71
2022/08/20 00:25:13;;;;;;;7.60;5.07;;;22.50;95.20;;;;;;5073576;28;20452;-71
2022/08/20 00:27:39;;;;;;;5.00;4.20;;;22.50;95.40;;;;;;5073855;28;20441;-71
2022/08/20 00:30:08;;;;;;;5.40;4.70;;;22.40;95.30;;;;;;5073435;28;20473;-71
2022/08/20 00:32:42;;;;;;;6.33;4.10;;;22.40;95.40;;;;;;5073460;28;20492;-71
2022/08/20 00:35:09;;;;;;;6.63;4.40;;;22.40;95.30;;;;;;5074550;28;20437;-71
2022/08/20 00:37:36;;;;;;;6.33;4.37;;;22.50;95.20;;;;;;5072751;28;20886;-71
2022/08/20 00:40:05;;;;;;;4.10;3.70;;;22.60;95.20;;;;;;5073281;28;20957;-71
2022/08/20 00:42:40;;;;;;;5.50;4.33;;;22.60;94.90;;;;;;5073605;28;20483;-71
2022/08/20 00:45:07;;;;;;;5.23;4.60;;;22.70;94.80;;;;;;5074107;28;20433;-71
2022/08/20 00:47:34;;;;;;;7.10;5.00;;;22.80;94.60;;;;;;5073862;28;20449;-71
2022/08/20 00:50:01;;;;;;;5.17;4.47;;;22.80;94.40;;;;;;5074534;28;20482;-71
2022/08/20 00:52:28;;;;;;;5.67;5.00;;;22.90;94.20;;;;;;5075221;28;20477;-71
2022/08/20 00:54:58;;;;;;;5.03;4.30;;;23.00;94.10;;;;;;5076328;28;20448;-71
2022/08/20 00:57:30;;;;;;;6.63;4.00;;;23.00;93.90;;;;;;5076707;28;20461;-71
2022/08/20 00:59:59;;;;;;;3.90;3.60;;;23.00;93.90;;;;;;5076031;28;20429;-71
2022/08/20 01:02:28;;;;;;;5.60;4.03;;;23.10;93.70;;;;;;5074071;28;20476;-71
2022/08/20 01:04:56;;;;;;;5.13;3.90;;;23.20;93.60;;;;;;5073153;28;20484;-71
2022/08/20 01:07:31;;;;;;;4.80;4.07;;;23.20;93.30;;;;;;5073209;28;20443;-71
2022/08/20 01:09:58;;;;;;;5.03;3.83;;;23.20;93.40;;;;;;5072952;28;20461;-71
2022/08/20 01:12:26;;;;;;;5.97;4.53;;;23.10;93.40;;;;;;5073062;28;20451;-71
2022/08/20 01:14:53;;;;;;;7.00;4.40;;;23.10;93.50;;;;;;5072908;28;20444;-71
2022/08/20 01:17:24;;;;;;;5.10;4.60;;;23.10;93.40;;;;;;5073112;28;20441;-71
2022/08/20 01:19:55;;;;;;;5.17;4.67;;;23.10;93.40;;;;;;5073228;28;20439;-71
2022/08/20 01:25:21;;;;;;;4.60;4.00;;;23.20;93.30;;;;;;5052083;28;20432;-71
2022/08/20 01:27:51;;;;;;;5.10;4.60;;;23.20;93.10;;;;;;5073275;28;20439;-71
2022/08/20 01:30:18;;;;;;;5.40;4.90;;;23.20;93.10;;;;;;5073213;28;20579;-71
2022/08/20 01:32:45;;;;;;;5.20;4.73;;;23.20;93.00;;;;;;5072773;28;20986;-71
2022/08/20 01:35:11;;;;;;;5.27;4.50;;;23.20;93.00;;;;;;5072939;28;20448;-71
2022/08/20 01:37:38;;;;;;;5.57;4.37;;;23.20;93.00;;;;;;5072852;28;20449;-71
2022/08/20 01:40:12;;;;;;;4.87;4.43;;;23.20;93.00;;;;;;5072825;28;20813;-71
2022/08/20 01:42:44;;;;;;;4.30;3.97;;;23.20;93.00;;;;;;5072738;28;20507;-71
2022/08/20 01:45:12;;;;;;;8.27;4.30;;;23.20;92.80;;;;;;5072844;28;20429;-71
2022/08/20 01:47:39;;;;;;;4.63;4.23;;;23.20;92.70;;;;;;5072731;28;20462;-71
2022/08/20 01:50:12;;;;;;;6.33;4.33;;;23.20;92.70;;;;;;5075095;28;21009;-71
2022/08/20 01:52:46;;;;;;;4.37;4.00;;;23.20;92.50;;;;;;5076228;28;20492;-71
2022/08/20 01:55:13;;;;;;;4.30;3.90;;;23.20;92.50;;;;;;5076314;28;20431;-71
2022/08/20 01:57:40;;;;;;;3.87;3.30;;;23.20;92.30;;;;;;5075763;28;20457;-71
2022/08/20 02:00:11;;;;;;;4.53;4.13;;;23.20;92.20;;;;;;5076219;28;20422;-71
2022/08/20 02:02:40;;;;;;;4.53;4.07;;;23.20;92.20;;;;;;5076139;28;20475;-71
2022/08/20 02:05:08;;;;;;;5.13;4.00;;;23.10;92.20;;;;;;5076058;28;20814;-71
2022/08/20 02:07:35;;;;;;;4.23;3.73;;;23.10;92.20;;;;;;5076085;28;20518;-71
2022/08/20 02:10:02;;;;;;;3.60;3.30;;;23.10;92.30;;;;;;5075884;28;20848;-71
2022/08/20 02:12:28;;;;;;;4.30;3.90;;;23.10;92.30;;;;;;5075958;28;20855;-71
2022/08/20 02:14:55;;;;;;;4.47;3.73;;;23.10;92.30;;;;;;5075593;28;20948;-71
2022/08/20 02:17:24;;;;;;;3.70;3.40;;;23.10;92.40;;;;;;5075817;28;20525;-71
2022/08/20 02:19:55;;;;;;;4.50;3.43;;;23.10;92.40;;;;;;5075808;28;20473;-71
2022/08/20 02:22:26;;;;;;;4.57;4.13;;;23.10;92.30;;;;;;5075666;28;20459;-71
2022/08/20 02:24:53;;;;;;;4.67;4.00;;;23.10;92.20;;;;;;5075738;28;20429;-71
2022/08/20 02:27:22;;;;;;;4.17;3.83;;;23.10;92.20;;;;;;5075672;28;20452;-71
2022/08/20 02:29:50;;;;;;;4.30;4.00;;;23.10;92.20;;;;;;5075185;28;21046;-71
2022/08/20 02:32:16;;;;;;;5.37;4.67;;;23.00;92.20;;;;;;5075489;28;20543;-71
2022/08/20 02:34:43;;;;;;;7.13;4.90;;;23.10;92.50;;;;;;5075365;28;20931;-71
2022/08/20 02:37:13;;;;;;;8.40;4.20;;;23.10;92.50;;;;;;5075415;28;20816;-71
2022/08/20 02:39:40;;;;;;;5.07;3.90;;;23.00;92.60;;;;;;5075494;28;20820;-71
2022/08/20 02:42:08;;;;;;;5.07;4.57;;;23.00;92.60;;;;;;5075255;28;20487;-71
2022/08/20 02:44:35;;;;;;;4.80;4.33;;;23.00;92.70;;;;;;5075321;28;20445;-71
2022/08/20 02:47:02;;;;;;;7.03;4.57;;;23.00;92.80;;;;;;5075268;28;20484;-71
2022/08/20 02:49:29;;;;;;;4.50;4.10;;;23.00;92.90;;;;;;5074994;28;20836;-71
2022/08/20 02:51:55;;;;;;;4.50;3.90;;;23.00;92.90;;;;;;5075192;28;20449;-71
2022/08/20 02:54:24;;;;;;;7.90;5.33;;;23.10;93.10;;;;;;5074997;28;20471;-71
2022/08/20 02:56:51;;;;;;;5.60;4.80;;;23.10;93.10;;;;;;5074862;28;20488;-71
2022/08/20 02:59:18;;;;;;;9.27;4.60;;;23.10;92.90;;;;;;5074535;28;20445;-71
2022/08/20 03:01:45;;;;;;;7.53;4.57;;;23.10;92.90;;;;;;5074936;28;20440;-71
2022/08/20 03:04:12;;;;;;;8.60;4.30;;;23.00;92.90;;;;;;5074804;28;20476;-71
2022/08/20 03:06:38;;;;;;;9.83;4.83;;;23.00;92.70;;;;;;5074943;28;20437;-71
2022/08/20 03:09:07;;;;;;;4.60;3.93;;;23.00;92.70;;;;;;5074827;28;20449;-71
2022/08/20 03:11:38;;;;;;;10.33;4.10;;;23.00;92.80;;;;;;5074679;28;20481;-71
2022/08/20 03:14:05;;;;;;;6.20;3.90;;;23.00;93.00;;;;;;5074747;28;20501;-71
2022/08/20 03:16:31;;;;;;;9.73;4.57;;;23.00;93.50;;;;;;5074744;28;20484;-71
2022/08/20 03:18:58;;;;;;;11.87;4.43;;;23.00;93.20;;;;;;5074596;28;20441;-71
2022/08/20 03:21:26;;;;;;;7.07;3.17;;;23.00;93.40;;;;;;5074590;28;20445;-71
2022/08/20 03:23:52;;;;;;;9.40;4.30;;;23.00;93.50;;;;;;5074475;28;20469;-71
2022/08/20 03:26:19;;;;;;;10.03;4.20;;;23.00;93.60;;;;;;5074261;28;20839;-71
2022/08/20 03:28:47;;;;;;;11.47;4.17;;;22.90;93.60;;;;;;5074535;28;20445;-71
2022/08/20 03:31:14;;;;;;;11.43;4.53;;;22.90;93.50;;;;;;5074606;28;20476;-71
2022/08/20 03:33:42;;;;;;;11.83;5.17;;;22.90;93.60;;;;;;5074409;28;20500;-71
2022/08/20 03:36:09;;;;;;;7.37;3.73;;;22.90;93.70;;;;;;5074428;28;20448;-71
2022/08/20 03:38:36;;;;;;;9.00;5.23;;;22.90;93.70;;;;;;5074381;28;20542;-71
2022/08/20 03:41:04;;;;;;;11.83;6.53;;;22.90;93.60;;;;;;5074254;28;20444;-71
2022/08/20 03:43:31;;;;;;;9.57;6.57;;;22.90;93.80;;;;;;5074786;28;20464;-71
2022/08/20 03:46:00;;;;;;;9.70;6.40;;;22.80;93.80;;;;;;5074585;28;20445;-71
2022/08/20 03:48:28;;;;;;;13.77;6.40;;;22.80;94.00;;;;;;5074829;28;20932;-71
2022/08/20 03:50:57;;;;;;;10.20;7.97;;;22.80;94.10;;;;;;5075727;28;20480;-71
2022/08/20 03:53:23;;;;;;;13.90;7.97;;;22.80;94.10;;;;;;5076353;28;20473;-71
2022/08/20 03:55:54;;;;;;;15.37;9.33;;;22.70;94.20;;;;;;5076136;28;20935;-71
2022/08/20 03:58:22;;;;;;;10.60;9.60;;;22.70;94.70;;;;;;5077676;28;20449;-71
2022/08/20 04:00:50;;;;;;;13.70;12.30;;;22.50;95.10;;;;;;5077721;28;20437;-70
2022/08/20 04:03:18;;;;;;;14.10;12.80;;;22.40;95.40;;;;;;5077195;28;20473;-71
2022/08/20 04:05:46;;;;;;;15.17;13.80;;;22.30;96.00;;;;;;5074056;28;20815;-71
2022/08/20 04:08:16;;;;;;;16.60;15.00;;;22.20;96.50;;;;;;5074869;28;20453;-71
2022/08/20 04:10:45;;;;;;;17.03;15.30;;;22.00;97.00;;;;;;5074535;28;20475;-71
2022/08/20 04:13:12;;;;;;;18.87;17.07;;;21.90;97.30;;;;;;5073191;28;20823;-71
2022/08/20 04:15:39;;;;;;;23.10;20.80;;;21.90;97.60;;;;;;5073638;28;20456;-71
2022/08/20 04:18:09;;;;;;;24.80;22.40;;;21.80;97.70;;;;;;5073660;28;20453;-71
2022/08/20 04:20:39;;;;;;;26.17;23.77;;;21.60;98.10;;;;;;5073641;28;20429;-71
2022/08/20 04:23:06;;;;;;;28.67;25.80;;;21.60;98.40;;;;;;5073627;28;20665;-71
2022/08/20 04:25:34;;;;;;;28.97;26.00;;;21.40;98.80;;;;;;5073637;28;20449;-71
2022/08/20 04:28:04;;;;;;;31.13;27.57;;;21.40;99.40;;;;;;5073543;28;20459;-71
2022/08/20 04:30:32;;;;;;;30.07;26.97;;;21.20;99.50;;;;;;5073511;28;20515;-71
2022/08/20 04:33:00;;;;;;;32.07;28.73;;;21.20;99.90;;;;;;5073368;28;20500;-71
2022/08/20 04:35:27;;;;;;;29.80;26.70;;;21.10;99.90;;;;;;5073542;28;20444;-71
2022/08/20 04:38:01;;;;;;;32.03;28.53;;;21.10;99.90;;;;;;5073447;28;20449;-71
2022/08/20 04:43:13;;;;;;;34.27;30.00;;;21.00;99.90;;;;;;5073449;28;20950;-71
2022/08/20 04:45:40;;;;;;;32.60;29.37;;;21.10;99.90;;;;;;5073414;28;20515;-71
2022/08/20 04:48:07;;;;;;;32.57;29.13;;;21.10;99.90;;;;;;5073116;28;20583;-71
2022/08/20 04:50:36;;;;;;;33.03;29.77;;;21.10;99.90;;;;;;5072972;28;20483;-71
2022/08/20 04:53:07;;;;;;;32.07;28.87;;;20.90;99.90;;;;;;5073342;28;20472;-71
2022/08/20 04:55:37;;;;;;;34.83;30.80;;;20.90;99.90;;;;;;5073312;28;20429;-71
2022/08/20 04:58:04;;;;;;;33.40;30.00;;;20.90;99.90;;;;;;5072903;28;20491;-71
2022/08/20 05:00:32;;;;;;;31.80;28.37;;;20.90;99.90;;;;;;5073222;28;20454;-71
2022/08/20 05:02:59;;;;;;;34.83;31.33;;;20.90;99.90;;;;;;5073050;28;20469;-71
2022/08/20 05:05:26;;;;;;;34.50;30.93;;;20.90;99.90;;;;;;5072894;28;20939;-71
2022/08/20 05:07:54;;;;;;;33.10;29.50;;;20.90;99.90;;;;;;5073166;28;20537;-71
2022/08/20 05:10:24;;;;;;;36.17;31.80;;;20.90;99.90;;;;;;5072946;28;20480;-71
2022/08/20 05:12:51;;;;;;;33.30;29.80;;;20.90;99.90;;;;;;5072945;28;20473;-71
2022/08/20 05:15:17;;;;;;;35.07;30.93;;;20.90;99.90;;;;;;5072845;28;20792;-73
2022/08/20 05:17:44;;;;;;;36.77;32.03;;;20.90;99.90;;;;;;5073168;28;20444;-73
2022/08/20 05:20:15;;;;;;;35.20;31.37;;;21.00;99.90;;;;;;5073273;28;20441;-72
2022/08/20 05:22:42;;;;;;;35.70;31.47;;;20.90;99.90;;;;;;5073598;28;20527;-71
2022/08/20 05:25:09;;;;;;;35.03;31.23;;;20.90;99.90;;;;;;5076450;28;20965;-71
2022/08/20 05:27:38;;;;;;;33.20;29.40;;;21.00;99.90;;;;;;5076819;28;20429;-71
2022/08/20 05:30:08;;;;;;;34.80;29.30;;;21.00;99.90;;;;;;5076793;28;20531;-71
2022/08/20 05:32:35;;;;;;;34.13;28.73;;;21.10;99.90;;;;;;5077562;28;20555;-71
2022/08/20 05:35:03;;;;;;;32.20;27.43;;;21.00;99.90;;;;;;5076587;28;20502;-71
2022/08/20 05:37:30;;;;;;;33.40;28.77;;;21.10;99.90;;;;;;5076488;28;20445;-71
2022/08/20 05:39:57;;;;;;;29.30;26.20;;;21.00;99.90;;;;;;5076532;28;20445;-71
2022/08/20 05:42:25;;;;;;;29.43;26.43;;;21.00;99.90;;;;;;5076151;28;20928;-71
2022/08/20 05:44:53;;;;;;;27.87;24.17;;;20.90;99.90;;;;;;5076237;28;20939;-71
2022/08/20 05:47:26;;;;;;;29.17;26.10;;;21.00;99.90;;;;;;5076089;28;20789;-71
2022/08/20 05:49:53;;;;;;;28.37;25.40;;;20.90;99.90;;;;;;5076429;28;20444;-71
2022/08/20 05:52:20;;;;;;;28.70;25.80;;;20.90;99.90;;;;;;5076199;28;20521;-71
2022/08/20 05:54:47;;;;;;;27.10;24.30;;;21.00;99.90;;;;;;5076350;28;20445;-72
2022/08/20 05:57:18;;;;;;;27.27;24.30;;;21.00;99.90;;;;;;5076076;28;20457;-71
2022/08/20 05:59:44;;;;;;;27.27;24.60;;;21.00;99.90;;;;;;5076233;28;20444;-71
2022/08/20 06:04:53;;;;;;;27.50;22.13;;;20.90;99.90;;;;;;5075590;28;20429;-72
2022/08/20 06:07:20;;;;;;;24.93;22.30;;;20.90;99.90;;;;;;5076112;28;20436;-72
2022/08/20 06:09:47;;;;;;;24.10;21.60;;;20.90;99.90;;;;;;5076314;28;20440;-73
2022/08/20 06:12:15;;;;;;;24.93;21.57;;;20.90;99.90;;;;;;5075505;28;20890;-73
2022/08/20 06:14:42;;;;;;;25.40;22.63;;;20.90;99.90;;;;;;5075725;28;20900;-73
2022/08/20 06:17:11;;;;;;;26.33;23.40;;;21.00;99.90;;;;;;5075998;28;20449;-73
2022/08/20 06:19:40;;;;;;;24.00;21.67;;;21.00;99.90;;;;;;5075844;28;20452;-73
2022/08/20 06:22:07;;;;;;;22.60;19.13;;;21.10;99.90;;;;;;5076058;28;20448;-73
2022/08/20 06:24:34;;;;;;;22.50;19.60;;;21.10;99.40;;;;;;5075697;28;20456;-73
2022/08/20 06:27:03;;;;;;;20.93;18.87;;;21.10;99.20;;;;;;5075757;28;20429;-73
2022/08/20 06:29:32;;;;;;;23.07;19.10;;;21.20;99.10;;;;;;5075383;28;20457;-73
2022/08/20 06:32:00;;;;;;;22.93;18.70;;;21.20;99.00;;;;;;5075705;28;20545;-73
2022/08/20 06:34:27;;;;;;;20.43;18.10;;;21.20;98.90;;;;;;5074860;28;20520;-73
2022/08/20 06:36:56;;;;;;;20.67;18.50;;;21.20;98.50;;;;;;5075874;28;20445;-73
2022/08/20 06:39:24;;;;;;;22.10;19.00;;;21.20;98.90;;;;;;5075835;28;20448;-73
2022/08/20 06:41:51;;;;;;;20.70;18.60;;;21.20;98.90;;;;;;5075747;28;20447;-73
2022/08/20 06:44:18;;;;;;;23.97;19.13;;;21.20;98.70;;;;;;5075307;28;20504;-73
2022/08/20 06:46:45;;;;;;;25.00;18.87;;;21.20;98.80;;;;;;5075518;28;20452;-73
2022/08/20 06:49:12;;;;;;;23.30;19.23;;;21.20;98.60;;;;;;5075406;28;20448;-73
2022/08/20 06:51:39;;;;;;;19.70;17.57;;;21.30;99.00;;;;;;5075318;28;20481;-73
2022/08/20 06:54:07;;;;;;;20.80;18.60;;;21.40;99.20;;;;;;5075138;28;20983;-73
2022/08/20 06:56:34;;;;;;;17.77;15.73;;;21.50;98.50;;;;;;5075419;28;20457;-73
2022/08/20 06:59:01;;;;;;;20.40;18.33;;;21.50;97.80;;;;;;5075992;28;20506;-73
2022/08/20 07:01:28;;;;;;;19.83;17.40;;;21.50;97.50;;;;;;5076479;28;20437;-73
2022/08/20 07:03:58;;;;;;;16.03;14.43;;;21.60;98.00;;;;;;5077325;28;20461;-73
2022/08/20 07:06:25;;;;;;;22.20;15.50;;;21.60;97.60;;;;;;5077943;28;20432;-72
2022/08/20 07:08:52;;;;;;;15.73;14.17;;;21.50;96.90;;;;;;5077247;28;20456;-73
2022/08/20 07:11:20;;;;;;;23.60;16.77;;;21.50;96.90;;;;;;5075180;28;20477;-73
2022/08/20 07:13:48;;;;;;;16.10;14.37;;;21.50;97.20;;;;;;5074741;28;20476;-73
2022/08/20 07:16:15;;;;;;;19.87;15.80;;;21.40;96.70;;;;;;5074515;28;20967;-73
2022/08/20 07:18:42;;;;;;;20.20;15.10;;;21.30;96.80;;;;;;5074774;28;20482;-73
2022/08/20 07:21:08;;;;;;;19.07;16.20;;;21.30;96.80;;;;;;5074864;28;20437;-73
2022/08/20 07:23:35;;;;;;;18.83;16.30;;;21.30;97.10;;;;;;5074554;28;20468;-73
2022/08/20 07:26:02;;;;;;;23.57;18.50;;;21.30;96.70;;;;;;5074567;28;20568;-72
2022/08/20 07:28:31;;;;;;;21.13;17.30;;;21.30;97.10;;;;;;5074070;28;20431;-72
2022/08/20 07:33:43;;;;;;;21.67;18.07;;;21.30;96.90;;;;;;5075006;28;20468;-75
2022/08/20 07:36:11;;;;;;;21.90;18.60;;;21.30;96.60;;;;;;5074626;28;20483;-72
2022/08/20 07:38:38;;;;;;;26.33;19.77;;;21.20;95.80;;;;;;5074359;28;20440;-72
2022/08/20 07:41:08;;;;;;;22.63;18.53;;;21.10;96.50;;;;;;5074194;28;20445;-72
2022/08/20 07:43:38;;;;;;;20.93;18.60;;;21.00;95.60;;;;;;5074139;28;20481;-72
2022/08/20 07:46:07;;;;;;;21.43;19.20;;;21.00;96.10;;;;;;5073837;28;20986;-71
2022/08/20 07:48:35;;;;;;;23.80;18.33;;;21.00;96.60;;;;;;5074215;28;20441;-71
2022/08/20 07:51:04;;;;;;;24.03;19.47;;;21.10;96.90;;;;;;5073972;28;20449;-71
2022/08/20 07:53:32;;;;;;;27.00;18.97;;;21.20;96.30;;;;;;5073961;28;20465;-71
2022/08/20 07:55:59;;;;;;;22.93;19.63;;;21.20;95.90;;;;;;5073913;28;20457;-72
2022/08/20 07:58:26;;;;;;;23.53;18.27;;;21.20;94.90;;;;;;5074129;28;20421;-71
2022/08/20 08:00:54;;;;;;;22.40;18.20;;;21.20;95.20;;;;;;5074098;28;20445;-72
2022/08/20 08:03:21;;;;;;;21.73;17.10;;;21.20;95.20;;;;;;5073523;28;20841;-71
2022/08/20 08:05:50;;;;;;;26.43;18.00;;;21.20;94.70;;;;;;5073615;28;20441;-71
2022/08/20 08:08:24;;;;;;;28.53;19.00;;;21.20;95.40;;;;;;5073627;28;20843;-71
2022/08/20 08:10:55;;;;;;;21.97;16.80;;;21.30;95.50;;;;;;5073668;28;20926;-71
2022/08/20 08:13:25;;;;;;;23.33;18.30;;;21.30;95.20;;;;;;5073779;28;20476;-71
2022/08/20 08:15:56;;;;;;;26.57;18.37;;;21.40;95.20;;;;;;5073765;28;20445;-71
2022/08/20 08:18:35;;;;;;;24.70;16.50;;;21.40;95.00;;;;;;5073810;28;20453;-71
2022/08/20 08:21:02;;;;;;;21.17;16.70;;;21.50;94.40;;;;;;5073365;28;20437;-70
2022/08/20 08:23:29;;;;;;;21.00;16.50;;;21.70;94.50;;;;;;5073302;28;20479;-71
2022/08/20 08:25:57;;;;;;;24.93;16.10;;;21.80;93.90;;;;;;5073732;28;20459;-71
2022/08/20 08:28:29;;;;;;;26.40;16.80;;;21.90;93.40;;;;;;5073630;28;20524;-71
2022/08/20 08:30:58;;;;;;;26.03;18.27;;;21.90;93.40;;;;;;5073650;28;20429;-71
2022/08/20 08:33:29;;;;;;;26.27;17.63;;;21.90;93.90;;;;;;5073648;28;20460;-71
2022/08/20 08:35:57;;;;;;;28.70;18.10;;;21.90;93.60;;;;;;5073584;28;20437;-70
2022/08/20 08:38:25;;;;;;;24.17;17.60;;;21.90;93.80;;;;;;5073510;28;20445;-70
2022/08/20 08:40:53;;;;;;;25.53;20.67;;;21.90;93.50;;;;;;5073158;28;20483;-70
2022/08/20 08:43:21;;;;;;;25.83;18.73;;;22.00;93.80;;;;;;5073102;28;20883;-71
2022/08/20 08:45:58;;;;;;;28.67;18.03;;;21.90;93.30;;;;;;5073554;28;20449;-71
2022/08/20 08:48:36;;;;;;;28.10;18.63;;;22.00;93.40;;;;;;5073707;28;20431;-70
2022/08/20 08:51:06;;;;;;;25.20;17.93;;;22.20;93.40;;;;;;5073421;28;20467;-70
2022/08/20 08:53:37;;;;;;;20.97;17.00;;;22.30;93.40;;;;;;5073362;28;20468;-70
2022/08/20 08:56:05;;;;;;;25.23;19.00;;;22.40;92.70;;;;;;5072932;28;20432;-70
2022/08/20 08:58:34;;;;;;;21.37;18.87;;;22.50;92.20;;;;;;5075525;28;20437;-70
2022/08/20 09:01:08;;;;;;;27.53;18.87;;;22.50;92.20;;;;;;5077490;28;20467;-70
2022/08/20 09:03:38;;;;;;;27.40;18.23;;;22.50;91.70;;;;;;5077346;28;20460;-70
2022/08/20 09:06:06;;;;;;;25.03;18.40;;;22.50;91.70;;;;;;5076429;28;20432;-74
2022/08/20 09:08:37;;;;;;;22.83;17.67;;;22.30;91.50;;;;;;5077577;28;20452;-75
2022/08/20 09:11:07;;;;;;;25.43;20.13;;;22.30;92.10;;;;;;5077523;28;20439;-75
2022/08/20 09:13:34;;;;;;;25.90;18.37;;;22.20;92.30;;;;;;5077212;28;20491;-74
2022/08/20 09:16:01;;;;;;;25.30;18.50;;;22.20;92.80;;;;;;5077708;28;20441;-74
2022/08/20 09:18:29;;;;;;;26.80;18.90;;;22.10;92.20;;;;;;5077494;28;20814;-75
2022/08/20 09:20:56;;;;;;;23.40;18.90;;;22.10;92.50;;;;;;5077206;28;20970;-75
2022/08/20 09:23:23;;;;;;;28.10;20.00;;;22.20;92.50;;;;;;5077090;28;20460;-74
2022/08/20 09:25:50;;;;;;;23.87;18.80;;;22.20;92.50;;;;;;5076776;28;20452;-74
2022/08/20 09:28:16;;;;;;;26.63;19.13;;;22.10;92.80;;;;;;5076841;28;20440;-75
2022/08/20 09:30:43;;;;;;;25.27;19.03;;;22.10;93.20;;;;;;5076813;28;20445;-71
2022/08/20 09:33:10;;;;;;;27.27;18.90;;;22.20;93.10;;;;;;5076200;28;20893;-70
2022/08/20 09:35:39;;;;;;;19.27;16.23;;;22.20;93.10;;;;;;5076728;28;20451;-70
2022/08/20 09:38:05;;;;;;;22.90;18.60;;;22.30;92.30;;;;;;5076541;28;20460;-71
2022/08/20 09:40:32;;;;;;;20.33;16.60;;;22.40;92.40;;;;;;5076595;28;20491;-69
2022/08/20 09:42:59;;;;;;;22.50;17.00;;;22.50;92.30;;;;;;5076807;28;20460;-71
2022/08/20 09:45:26;;;;;;;25.40;18.30;;;22.70;92.20;;;;;;5076691;28;20495;-71
2022/08/20 09:47:53;;;;;;;20.60;17.70;;;22.70;91.80;;;;;;5076324;28;20815;-71
2022/08/20 09:50:19;;;;;;;24.40;19.60;;;22.80;91.50;;;;;;5076884;28;20463;-71
2022/08/20 09:52:50;;;;;;;11.33;9.87;;;22.70;91.10;;;;;;5076733;28;20484;-70
2022/08/20 09:55:21;;;;;;;36.47;14.70;;;22.70;89.30;;;;;;5076808;28;20486;-71
2022/08/20 09:57:49;;;;;;;26.33;13.73;;;22.90;89.90;;;;;;5076971;28;20475;-71
2022/08/20 10:00:18;;;;;;;17.70;13.80;;;23.20;88.10;;;;;;5077145;28;20935;-71
2022/08/20 10:02:45;;;;;;;16.63;12.20;;;23.60;86.90;;;;;;5076948;28;20831;-71
2022/08/20 10:05:12;;;;;;;18.53;13.40;;;23.90;84.90;;;;;;5077407;28;20459;-71
2022/08/20 10:07:40;;;;;;;18.83;13.80;;;24.20;83.60;;;;;;5079916;28;20449;-71
2022/08/20 10:10:11;;;;;;;19.03;14.90;;;24.40;82.10;;;;;;5077132;28;20804;-71
2022/08/20 10:12:40;;;;;;;15.50;12.27;;;24.60;80.80;;;;;;5080512;28;20496;-72
2022/08/20 10:15:08;;;;;;;20.50;13.40;;;24.70;79.90;;;;;;5078308;28;20452;-72
2022/08/20 10:17:37;;;;;;;21.20;13.53;;;24.80;79.40;;;;;;5076637;28;20444;-72
2022/08/20 10:20:05;;;;;;;20.90;15.17;;;24.80;79.10;;;;;;5075778;28;20803;-72
2022/08/20 10:22:32;;;;;;;23.03;14.73;;;24.80;78.90;;;;;;5075813;28;20473;-72
2022/08/20 10:24:59;;;;;;;23.33;17.97;;;24.80;78.50;;;;;;5075670;28;20536;-71
2022/08/20 10:27:27;;;;;;;28.30;18.53;;;24.80;80.10;;;;;;5075679;28;20456;-70
2022/08/20 10:29:54;;;;;;;24.13;16.40;;;24.60;81.30;;;;;;5075739;28;20452;-70
2022/08/20 10:32:20;;;;;;;24.47;17.67;;;24.50;82.80;;;;;;5075476;28;20485;-71
2022/08/20 10:34:47;;;;;;;26.70;17.80;;;24.20;82.00;;;;;;5075230;28;20455;-71
2022/08/20 10:37:16;;;;;;;20.70;17.20;;;24.00;83.20;;;;;;5075453;28;20429;-70
2022/08/20 10:39:44;;;;;;;25.40;17.07;;;23.80;83.90;;;;;;5075462;28;20448;-71
2022/08/20 10:42:10;;;;;;;20.43;16.20;;;23.80;85.50;;;;;;5075313;28;20453;-71
2022/08/20 10:44:39;;;;;;;22.10;15.97;;;23.70;87.10;;;;;;5075358;28;20455;-71
2022/08/20 10:47:21;;;;;;;26.03;17.57;;;23.80;85.70;;;;;;5075295;28;20445;-71
2022/08/20 10:49:48;;;;;;;23.10;17.40;;;23.80;86.00;;;;;;5075609;28;20448;-70
2022/08/20 10:52:15;;;;;;;19.73;14.80;;;23.80;86.20;;;;;;5074674;28;20507;-71
2022/08/20 10:54:42;;;;;;;26.93;17.33;;;23.90;86.10;;;;;;5073933;28;20469;-71
2022/08/20 10:57:13;;;;;;;25.60;16.50;;;24.10;84.50;;;;;;5074962;28;20582;-70
2022/08/20 10:59:43;;;;;;;20.40;17.03;;;24.10;84.50;;;;;;5074806;28;20899;-70
2022/08/20 11:02:10;;;;;;;24.17;16.40;;;24.10;83.20;;;;;;5074670;28;20447;-70
2022/08/20 11:04:39;;;;;;;19.50;16.10;;;24.00;82.70;;;;;;5074988;28;20457;-72
2022/08/20 11:07:16;;;;;;;18.07;14.73;;;23.90;84.90;;;;;;5074918;28;20915;-74
2022/08/20 11:09:44;;;;;;;22.27;16.17;;;23.80;84.70;;;;;;5074701;28;20792;-73
2022/08/20 11:12:11;;;;;;;20.80;16.60;;;23.70;84.50;;;;;;5075576;28;20575;-72
2022/08/20 11:14:38;;;;;;;20.20;16.80;;;23.50;84.90;;;;;;5074794;28;20455;-73
2022/08/20 11:17:07;;;;;;;20.87;18.07;;;23.50;88.10;;;;;;5074811;28;20449;-73
2022/08/20 11:19:39;;;;;;;20.10;16.60;;;23.60;86.70;;;;;;5074690;28;20459;-73
2022/08/20 11:22:07;;;;;;;22.23;16.40;;;23.90;84.10;;;;;;5074834;28;20425;-72
2022/08/20 11:24:34;;;;;;;20.63;14.97;;;24.10;82.40;;;;;;5074664;28;20437;-73
2022/08/20 11:27:01;;;;;;;23.20;16.20;;;24.30;83.10;;;;;;5074728;28;20441;-73
2022/08/20 11:29:28;;;;;;;16.67;13.53;;;24.90;81.30;;;;;;5074315;28;20847;-73
2022/08/20 11:31:55;;;;;;;23.80;14.47;;;25.60;78.30;;;;;;5074427;28;20492;-72
2022/08/20 11:34:23;;;;;;;16.47;12.43;;;26.70;72.40;;;;;;5074563;28;20484;-72
2022/08/20 11:36:49;;;;;;;15.10;12.57;;;27.90;63.80;;;;;;5074920;28;20441;-72
2022/08/20 11:39:16;;;;;;;15.63;14.03;;;28.90;59.00;;;;;;5074505;28;20452;-73
2022/08/20 11:41:43;;;;;;;15.00;12.23;;;29.60;54.40;;;;;;5074805;28;20468;-73
2022/08/20 11:44:10;;;;;;;13.90;11.30;;;29.80;54.20;;;;;;5074831;28;20473;-72
2022/08/20 11:46:37;;;;;;;13.83;12.10;;;29.60;52.90;;;;;;5075345;28;20429;-73
2022/08/20 11:49:04;;;;;;;12.80;9.50;;;29.10;52.50;;;;;;5076212;28;20441;-73
2022/08/20 11:51:32;;;;;;;14.93;11.73;;;28.60;54.80;;;;;;5076786;28;20444;-73
2022/08/20 11:53:59;;;;;;;14.70;12.07;;;28.10;55.80;;;;;;5076605;28;20542;-72
2022/08/20 11:56:26;;;;;;;11.90;10.70;;;27.70;56.40;;;;;;5074187;28;20504;-73
2022/08/20 11:58:53;;;;;;;14.60;10.77;;;27.50;58.40;;;;;;5074234;28;20795;-73
2022/08/20 12:01:20;;;;;;;13.93;10.37;;;27.40;55.90;;;;;;5073922;28;20809;-72
2022/08/20 12:03:46;;;;;;;12.10;9.30;;;27.80;57.80;;;;;;5073834;28;20547;-72
2022/08/20 12:06:13;;;;;;;9.93;8.60;;;28.50;52.80;;;;;;5073674;28;20958;-73
2022/08/20 12:08:42;;;;;;;13.40;8.73;;;29.40;53.70;;;;;;5074086;28;20452;-73
2022/08/20 12:11:08;;;;;;;11.87;10.17;;;30.10;48.80;;;;;;5073842;28;20452;-73
2022/08/20 12:13:37;;;;;;;10.67;7.77;;;30.50;46.80;;;;;;5073641;28;20488;-72
2022/08/20 12:16:04;;;;;;;10.83;8.17;;;30.90;47.40;;;;;;5073887;28;20445;-73
2022/08/20 12:18:31;;;;;;;8.73;7.83;;;31.50;44.80;;;;;;5073607;28;20448;-73
2022/08/20 12:20:58;;;;;;;12.50;8.73;;;32.00;42.70;;;;;;5073718;28;20539;-73
2022/08/20 12:23:25;;;;;;;15.03;8.00;;;32.50;41.60;;;;;;5073289;28;20472;-72
2022/08/20 12:25:53;;;;;;;12.57;8.60;;;32.60;40.50;;;;;;5073750;28;20437;-72
2022/08/20 12:28:20;;;;;;;12.37;8.20;;;32.40;40.20;;;;;;5073648;28;20449;-73
2022/08/20 12:30:47;;;;;;;15.60;8.80;;;32.40;40.90;;;;;;5073745;28;20477;-73
2022/08/20 12:33:14;;;;;;;12.77;7.60;;;32.40;40.50;;;;;;5072706;28;20998;-72
2022/08/20 12:35:40;;;;;;;10.57;8.17;;;32.30;40.50;;;;;;5073648;28;20457;-72
2022/08/20 12:38:07;;;;;;;9.27;7.27;;;31.90;40.80;;;;;;5073404;28;20433;-72
2022/08/20 12:40:34;;;;;;;11.97;8.00;;;31.70;41.50;;;;;;5073500;28;20958;-72
2022/08/20 12:43:03;;;;;;;10.07;7.30;;;31.30;42.50;;;;;;5073349;28;20483;-73
2022/08/20 12:45:32;;;;;;;10.60;6.50;;;31.10;42.80;;;;;;5073741;28;20510;-72
2022/08/20 12:48:06;;;;;;;11.93;7.00;;;31.30;42.10;;;;;;5073236;28;20452;-73